createdAt,value
2018-03-28T00:00:04.673Z,958.15
2018-03-28T00:15:05.066Z,958.09
2018-03-28T00:30:04.844Z,957.63
2018-03-28T00:45:04.732Z,957.77
2018-03-28T01:00:05.220Z,957.9
2018-03-28T01:15:05.109Z,957.58
2018-03-28T01:30:05.203Z,957.55
2018-03-28T01:45:04.750Z,957.15
2018-03-28T02:00:05.444Z,956.93
2018-03-28T02:15:04.839Z,956.96
2018-03-28T02:30:04.748Z,956.69
2018-03-28T02:45:05.458Z,956.82
2018-03-28T03:00:05.759Z,956.66
2018-03-28T03:15:04.926Z,956.53
2018-03-28T03:30:05.119Z,956.15
2018-03-28T03:45:05.175Z,956.15
2018-03-28T04:00:04.549Z,956.02
2018-03-28T04:15:05.098Z,956.04
2018-03-28T04:30:05.119Z,956.2
2018-03-28T04:45:04.917Z,956.12
2018-03-28T05:00:05.647Z,956.31
2018-03-28T05:15:04.853Z,956.26
2018-03-28T05:30:05.399Z,955.91
2018-03-28T05:45:04.433Z,956.02
2018-03-28T06:00:04.923Z,955.75
2018-03-28T06:15:04.389Z,955.61
2018-03-28T06:30:05.142Z,955.58
2018-03-28T06:45:04.662Z,955.26
2018-03-28T07:00:05.029Z,954.83
2018-03-28T07:15:04.966Z,954.5
2018-03-28T07:30:04.618Z,954.45
2018-03-28T07:45:05.046Z,953.96
2018-03-28T08:00:04.521Z,953.64
2018-03-28T08:15:04.920Z,952.89
2018-03-28T08:30:04.548Z,954.48
2018-03-28T08:45:04.564Z,954.29
2018-03-28T09:00:05.007Z,955.05
2018-03-28T09:15:04.930Z,957.15
2018-03-28T09:30:05.078Z,957.17
2018-03-28T09:45:04.542Z,955.87
2018-03-28T10:00:04.963Z,955.65
2018-03-28T10:15:04.930Z,955.05
2018-03-28T10:30:04.716Z,955.21
2018-03-28T10:45:05.434Z,955.4
2018-03-28T11:00:04.389Z,955.51
2018-03-28T11:15:04.384Z,953.88
2018-03-28T11:30:04.516Z,953.74
2018-03-28T11:45:05.027Z,954.04
2018-03-28T12:00:05.034Z,953.42
2018-03-28T12:15:04.915Z,953.06
2018-03-28T12:30:04.607Z,952.41
2018-03-28T12:45:05.124Z,952.25
2018-03-28T13:00:05.094Z,952.68
2018-03-28T13:15:04.488Z,951.95
2018-03-28T13:30:05.081Z,951.68
2018-03-28T13:45:04.483Z,952.38
2018-03-28T14:00:04.695Z,952.19
2018-03-28T14:15:05.092Z,952.17
2018-03-28T14:30:04.807Z,952.27
2018-03-28T14:45:05.046Z,952.08
2018-03-28T15:00:04.990Z,952.27
2018-03-28T15:15:04.568Z,951.7
2018-03-28T15:30:04.649Z,951.43
2018-03-28T15:45:05.253Z,951.3
2018-03-28T16:00:04.857Z,951.27
2018-03-28T16:15:04.984Z,951.43
2018-03-28T16:30:04.604Z,951.27
2018-03-28T16:45:05.163Z,951.05
2018-03-28T17:00:05.235Z,950.83
2018-03-28T17:15:05.326Z,950.97
2018-03-28T17:30:04.686Z,951.13
2018-03-28T17:45:05.201Z,951.21
2018-03-28T18:00:04.677Z,951.27
2018-03-28T18:15:05.193Z,951.3
2018-03-28T18:30:05.167Z,951.57
2018-03-28T18:45:05.442Z,951.98
2018-03-28T19:00:05.077Z,952.63
2018-03-28T19:15:04.601Z,952.63
2018-03-28T19:30:04.973Z,953.01
2018-03-28T19:45:04.989Z,953.34
2018-03-28T20:00:04.565Z,953.88
2018-03-28T20:15:05.251Z,954.12
2018-03-28T20:30:04.513Z,954.26
2018-03-28T20:45:05.462Z,954.32
2018-03-28T21:00:04.727Z,954.89
2018-03-28T21:15:05.437Z,948.11
2018-03-28T21:30:05.180Z,947.87
2018-03-28T21:45:04.622Z,947.84
2018-03-28T22:00:04.783Z,948.03
2018-03-28T22:15:05.481Z,948.43
2018-03-28T22:30:04.924Z,948.68
2018-03-28T22:45:05.315Z,949.05
2018-03-28T23:00:05.446Z,949.97
2018-03-28T23:15:04.626Z,950.86
2018-03-28T23:30:04.992Z,951.24
2018-03-28T23:45:04.942Z,951.78
